AirNav   Air Wisconsin pilot careers
 
 831 users online  

KEZI Kewanee Municipal Airport
Kewanee, Illinois, USA

GOING TO KEWANEE?


FAA INFORMATION EFFECTIVE 29 MARCH 2018

Location

FAA Identifier: EZI
Lat/Long: 41-12-18.7000N / 089-57-49.9000W
41-12.311667N / 089-57.831667W
41.2051944 / -89.9638611
(estimated)
Elevation: 858 ft. / 261.5 m (surveyed)
Variation: 02W (2015)
From city: 3 miles SW of KEWANEE, IL
Time zone: UTC -5 (UTC -6 during Standard Time)
Zip code: 61443

Airport Operations

Airport use: Open to the public
Control tower: no
ARTCC: CHICAGO CENTER
FSS: KANKAKEE FLIGHT SERVICE STATION
NOTAMs facility: IKK (NOTAM-D service available)
Attendance: MON-FRI 0800-1800, ALL SAT 0800-1700, ALL SUN 0900-1700
Pattern altitude: TPA 800 FT PISTON ACFT & 400 FT ULTRLIGHT ACFT.
Wind indicator: lighted
Segmented circle: yes
Lights: MIRL RY 09/27 PRESET ON LOW INTST; TO INCR INTST & ACTVT MIRL RY 01/19 & TWY LGTS - CTAF.
Beacon: white-green (lighted land airport)
Operates sunset to sunrise.

Airport Communications

CTAF/UNICOM: 122.8
QUAD CITY APPROACH: 133.275
QUAD CITY DEPARTURE: 133.275
  • APCH/DEP SERVICE PROVIDED BY CHICAGO ARTCC ON FREQS 124.55/398.9 (BRADFORD RCAG) WHEN QUAD CITY APCH CLSD.

Nearby radio navigation aids

VOR radial/distance  VOR name  Freq  Var
BDFr279/17.2BRADFORD VORTAC114.7000E
GBGr050/26.7GALESBURG VOR/DME109.8003E
MZVr098/31.2MOLINE VOR/DME114.4005E
PIAr342/32.4PEORIA VORTAC115.2004E
CVAr138/38.2DAVENPORT VORTAC113.8004E

 
NDB name  Hdg/Dist  Freq  Var  ID
WHITESIDE194/31.425401EBOZ -... --- --..

Airport Services

Fuel available: 100LL
Parking: hangars and tiedowns
Airframe service: MAJOR
Powerplant service: MAJOR
Bottled oxygen: NONE
Bulk oxygen: NONE

Runway Information

Runway 9/27

Dimensions: 4500 x 75 ft. / 1372 x 23 m
Surface: asphalt, in good condition
Weight bearing capacity: 
Single wheel: 20.0
Runway edge lights: medium intensity
RUNWAY 9  RUNWAY 27
Latitude: 41-12.245988N41-12.231790N
Longitude: 089-58.428632W089-57.447698W
Elevation: 853.8 ft.856.3 ft.
Gradient: 0.2%0.2%
Traffic pattern: leftleft
Runway heading: 093 magnetic, 091 true273 magnetic, 271 true
Markings: nonprecision, in good conditionnonprecision, in good condition
Visual slope indicator: pulsating/steady burning VASI on left (3.50 degrees glide path)
RY 09 PVASI UNUSBL BYD 6 DEG LEFT AND RIGHT OF CNTRLN.
pulsating/steady burning VASI on left (3.00 degrees glide path)
RY 27 PVASI UNUSBL BYD 6 DEG LEFT AND RIGHT OF CNTRLN.
Runway end identifier lights: no
Touchdown point: yes, no lightsyes, no lights

Runway 1/19

Dimensions: 3200 x 60 ft. / 975 x 18 m
Surface: asphalt, in good condition
Weight bearing capacity: 
Single wheel: 20.0
Runway edge lights: medium intensity
Gradient: S
RUNWAY 1  RUNWAY 19
Latitude: 41-12.156590N41-12.673108N
Longitude: 089-57.752145W089-57.614733W
Elevation: 855.1 ft.837.6 ft.
Gradient: 0.6%0.5% UP
Traffic pattern: leftleft
Runway heading: 013 magnetic, 011 true193 magnetic, 191 true
Markings: nonprecision, in good conditionnonprecision, in good condition
Touchdown point: yes, no lightsyes, no lights

Airport Ownership and Management from official FAA records

Ownership: Publicly-owned
Owner: KEWANEE AIRPORT AUTHORITY
3761 MIDLAND RD
KEWANEE, IL 61443
Phone 309-853-8671
Manager: DALE LINDSTROM
3761 MIDLAND RD.
KEWANEE, IL 61443
Phone 309-853-8222

Airport Operational Statistics

Aircraft based on the field: 25
Single engine airplanes: 21
Multi engine airplanes: 2
Helicopters: 1
Ultralights: 1
    
Aircraft operations: avg 33/day *
67% local general aviation
33% transient general aviation
<1% military
* for 12-month period ending 30 June 2017

Additional Remarks

ULTRALIGHT ACTIVITY ON & INVOF ARPT.
HOSPITAL HELIPORT 1.2 NM NORTHEAST OF ARPT.

Instrument Procedures

NOTE: All procedures below are presented as PDF files. If you need a reader for these files, you should download the free Adobe Reader.

NOT FOR NAVIGATION. Please procure official charts for flight.
FAA instrument procedures published for use from 29 March 2018 at 0901Z to 26 April 2018 at 0900Z.

 
IAPs - Instrument Approach Procedures
RNAV (GPS) RWY 01   download (182KB)
RNAV (GPS) RWY 09   download (216KB)
RNAV (GPS) RWY 19   download (179KB)
RNAV (GPS) RWY 27   download (211KB)
NOTE: Special Take-Off Minimums/Departure Procedures apply   download (201KB)

Other nearby airports with instrument procedures:

KGBG - Galesburg Municipal Airport (27 nm SW)
C75 - Marshall County Airport (28 nm SE)
KMLI - Quad City International Airport (29 nm NW)
3MY - Mount Hawley Auxiliary Airport (29 nm SE)
C66 - Monmouth Municipal Airport (34 nm SW)
 
Loc | Ops | Rwys | IFR | FBO | Links
Com | Nav | Svcs | Stats | Notes

AirNav Hotels Sweepstakes
 
Area around KEZI (Kewanee Municipal Airport)
 
Road maps at: MapQuest Bing Google
 
Aerial photo
WARNING: Photo may not be current or correct
Aerial photo of KEZI (Kewanee Municipal Airport)
Photo by Greg Neaveill
Photo taken 09-Nov-2016
looking southeast

Do you have a better or more recent aerial photo of Kewanee Municipal Airport that you would like to share? If so, please send us your photo.

 
Sectional chart

 
Airport distance calculator
Flying to Kewanee Municipal Airport? Find the distance to fly.

From to KEZI

Sunrise and sunset
Times for 20-Apr-2018
 Local
(UTC-5)
 Zulu
(UTC)
Morning civil twilight05:4510:45
Sunrise06:1411:14
Sunset19:4400:44
Evening civil twilight20:1301:13

Current date and time
Zulu (UTC)  21-Apr-2018 02:38:30
Local (UTC-5)  20-Apr-2018 21:38:30
 
METAR
KGBG 
27nm SW 
210215Z AUTO 00000KT 10SM CLR 12/M03 A3040 RMK AO2 T01201035
KC75 
29nm SE 
210210Z AUTO 09006KT 10SM CLR 10/M04 A3041 RMK AO2 T00991037
KMLI 
29nm NW 
210152Z 00000KT 10SM CLR 09/M02 A3039 RMK AO2 SLP294 T00941022
KPIA 
35nm S 
210154Z 08003KT 10SM CLR 11/M04 A3040 RMK AO2 SLP296 T01111039
KSQI 
35nm N 
210156Z AUTO 00000KT 10SM CLR 10/M03 A3042 RMK AO2 SLP326 T01001033 $
KDVN 
37nm NW 
210152Z AUTO 09005KT 10SM CLR 11/M06 A3042 RMK AO2 SLP301 T01061056
KVYS 
38nm E 
210210Z AUTO 07004KT 10SM CLR 12/M04 A3042 RMK AO2 T01191041
KCWI 
40nm NW 
210156Z AUTO 07006KT 10SM CLR 09/M02 A3042 RMK AO2 SLP330 T00891022
TAF
KMLI 
29nm NW 
201720Z 2018/2118 14005KT P6SM BKN250 FM211400 11005KT P6SM OVC250
KPIA 
35nm S 
201726Z 2018/2118 12008KT P6SM SCT250 FM210200 VRB02KT P6SM BKN250
NOTAMs
Click for the latest NOTAMs
NOTAMs are issued by the DoD/FAA and will open in a separate window not controlled by AirNav.

 

 
 

FBO, Fuel Providers, and Aircraft Ground Support

  
 Business Name 
 
 Contact 
 
 Services / Description 
 
Fuel Prices
 
Comments
  
Anderson Flying Service 309-853-8222
[web site]
[email]
Airport management, Aviation fuel, Aircraft parking (ramp or tiedown), Aircraft maintenance, Pilot supplies, ...

More info about Anderson Flying Service
Avfuel
100LL
PS $4.67 
 Updated 11-Apr-2018
 
   1 read write
PS=Pump service
Update Fuel Prices
 

Would you like to see your business listed on this page?

 If your business provides an interesting product or service to pilots, flight crews, aircraft, or users of the Kewanee Municipal Airport, you should consider listing it here.  To start the listing process, click on the button below
 
Add a business
 

Other Pages about Kewanee Municipal Airport

www.kewaneeairport.com
 
Update a link
 
Copyright © AirNav, LLC. All rights reserved. Privacy Policy  Contact